createdAt,value
2024-01-16T00:02:14.540Z,99787.25
2024-01-16T00:05:04.400Z,99788.66
2024-01-16T00:07:53.585Z,99775.09
2024-01-16T00:10:24.308Z,99783.69
2024-01-16T00:12:57.586Z,99782.03
2024-01-16T00:15:28.312Z,99777.06
2024-01-16T00:17:59.193Z,99779.00
2024-01-16T00:20:30.055Z,99775.75
2024-01-16T00:23:00.816Z,99771.78
2024-01-16T00:25:31.568Z,99773.16
2024-01-16T00:28:05.522Z,99770.69
2024-01-16T00:30:36.242Z,99764.19
2024-01-16T00:33:07.180Z,99772.50
2024-01-16T00:35:37.924Z,99769.44
2024-01-16T00:38:08.744Z,99757.31
2024-01-16T00:40:39.489Z,99752.44
2024-01-16T00:43:12.881Z,99754.59
2024-01-16T00:45:44.212Z,99767.50
2024-01-16T00:48:15.592Z,99783.81
2024-01-16T00:50:47.555Z,99787.75
2024-01-16T00:53:18.444Z,99787.13
2024-01-16T00:55:49.211Z,99789.31
2024-01-16T00:58:22.505Z,99791.28
2024-01-16T01:00:53.677Z,99800.53
2024-01-16T01:03:24.498Z,99804.19
2024-01-16T01:05:55.443Z,99797.59
2024-01-16T01:08:26.279Z,99807.78
2024-01-16T01:10:57.102Z,99805.47
2024-01-16T01:13:30.550Z,99808.56
2024-01-16T01:16:01.705Z,99807.34
2024-01-16T01:18:32.601Z,99813.03
2024-01-16T01:21:03.416Z,99811.78
2024-01-16T01:23:34.268Z,99812.38
2024-01-16T01:26:06.072Z,99816.06
2024-01-16T01:28:41.417Z,99818.22
2024-01-16T01:31:13.353Z,99827.44
2024-01-16T01:33:44.331Z,99825.00
2024-01-16T01:36:15.010Z,99830.50
2024-01-16T01:38:45.743Z,99829.75
2024-01-16T01:41:16.480Z,99831.78
2024-01-16T01:43:49.808Z,99841.31
2024-01-16T01:46:22.979Z,99835.44
2024-01-16T01:48:54.290Z,99838.06
2024-01-16T01:51:25.927Z,99833.94
2024-01-16T01:53:59.906Z,99831.31
2024-01-16T01:56:31.628Z,99843.16
2024-01-16T01:59:05.965Z,99833.28
2024-01-16T02:01:38.431Z,99834.66
2024-01-16T02:04:10.413Z,99837.28
2024-01-16T02:06:41.285Z,99831.91
2024-01-16T02:09:14.605Z,99839.41
2024-01-16T02:11:45.972Z,99836.94
2024-01-16T02:14:19.397Z,99833.72
2024-01-16T02:16:50.995Z,99840.31
2024-01-16T02:19:21.913Z,99833.47
2024-01-16T02:21:53.466Z,99836.25
2024-01-16T02:24:26.844Z,99843.03
2024-01-16T02:26:57.761Z,99844.38
2024-01-16T02:29:28.569Z,99836.25
2024-01-16T02:31:59.311Z,99840.09
2024-01-16T02:34:30.066Z,99837.78
2024-01-16T02:37:00.805Z,99841.47
2024-01-16T02:39:34.235Z,99844.53
2024-01-16T02:42:04.991Z,99838.69
2024-01-16T02:44:35.841Z,99842.22
2024-01-16T02:47:08.572Z,99844.69
2024-01-16T02:49:41.371Z,99845.00
2024-01-16T02:52:12.131Z,99849.97
2024-01-16T02:54:45.648Z,99850.38
2024-01-16T02:57:16.664Z,99864.88
2024-01-16T02:59:48.114Z,99864.28
2024-01-16T03:02:18.934Z,99867.47
2024-01-16T03:04:49.704Z,99882.41
2024-01-16T03:07:20.823Z,99875.63
2024-01-16T03:09:54.288Z,99879.53
2024-01-16T03:12:25.045Z,99873.59
2024-01-16T03:14:55.886Z,99875.88
2024-01-16T03:17:27.158Z,99875.28
2024-01-16T03:19:58.021Z,99879.59
2024-01-16T03:22:28.666Z,99867.13
2024-01-16T03:25:01.907Z,99863.72
2024-01-16T03:27:32.791Z,99866.94
2024-01-16T03:30:04.331Z,99863.56
2024-01-16T03:32:35.508Z,99873.41
2024-01-16T03:35:06.413Z,99877.72
2024-01-16T03:37:37.389Z,99882.34
2024-01-16T03:40:13.465Z,99875.28
2024-01-16T03:42:44.166Z,99878.47
2024-01-16T03:45:17.683Z,99876.19
2024-01-16T03:47:50.633Z,99868.34
2024-01-16T03:50:21.532Z,99871.09
2024-01-16T03:52:52.331Z,99860.06
2024-01-16T03:55:25.679Z,99860.97
2024-01-16T03:57:56.429Z,99857.91
2024-01-16T04:00:27.118Z,99850.69
2024-01-16T04:02:57.844Z,99851.91
2024-01-16T04:05:28.594Z,99845.31
2024-01-16T04:08:01.143Z,99833.31
2024-01-16T04:10:34.469Z,99838.53
2024-01-16T04:13:05.592Z,99838.22
2024-01-16T04:15:36.418Z,99843.13
2024-01-16T04:18:08.140Z,99840.66
2024-01-16T04:20:38.955Z,99848.81
2024-01-16T04:23:09.673Z,99855.28
2024-01-16T04:25:43.031Z,99846.47
2024-01-16T04:28:13.748Z,99847.13
2024-01-16T04:30:47.566Z,99842.47
2024-01-16T04:33:18.472Z,99839.81
2024-01-16T04:35:46.982Z,99837.19
2024-01-16T04:38:17.862Z,99831.59
2024-01-16T04:40:51.302Z,99831.44
2024-01-16T04:43:22.105Z,99819.66
2024-01-16T04:45:52.857Z,99812.13
2024-01-16T04:48:23.607Z,99816.16
2024-01-16T04:50:54.503Z,99808.03
2024-01-16T04:53:25.357Z,99812.81
2024-01-16T04:55:58.822Z,99813.91
2024-01-16T04:58:29.582Z,99816.84
2024-01-16T05:01:00.341Z,99811.59
2024-01-16T05:03:31.221Z,99824.03
2024-01-16T05:06:02.146Z,99816.38
2024-01-16T05:08:32.911Z,99820.31
2024-01-16T05:11:06.393Z,99820.31
2024-01-16T05:13:37.123Z,99818.16
2024-01-16T05:16:09.360Z,99817.56
2024-01-16T05:18:40.150Z,99823.09
2024-01-16T05:21:11.133Z,99818.63
2024-01-16T05:23:41.945Z,99810.81
2024-01-16T05:26:15.299Z,99817.16
2024-01-16T05:28:46.056Z,99808.53
2024-01-16T05:31:16.833Z,99802.03
2024-01-16T05:33:47.725Z,99811.25
2024-01-16T05:36:18.458Z,99811.59
2024-01-16T05:38:49.208Z,99811.72
2024-01-16T05:41:22.810Z,99809.88
2024-01-16T05:43:53.565Z,99810.81
2024-01-16T05:46:24.831Z,99806.38
2024-01-16T05:48:55.710Z,99807.00
2024-01-16T05:51:26.855Z,99804.63
2024-01-16T05:53:57.609Z,99805.06
2024-01-16T05:56:30.965Z,99801.69
2024-01-16T05:59:01.683Z,99801.41
2024-01-16T06:01:32.376Z,99798.88
2024-01-16T06:04:03.170Z,99798.09
2024-01-16T06:06:34.609Z,99803.78
2024-01-16T06:09:07.117Z,99798.72
2024-01-16T06:11:42.139Z,99802.06
2024-01-16T06:14:13.706Z,99805.25
2024-01-16T06:16:44.475Z,99806.38
2024-01-16T06:19:16.098Z,99808.69
2024-01-16T06:21:46.872Z,99801.56
2024-01-16T06:24:17.577Z,99812.50
2024-01-16T06:26:51.055Z,99806.94
2024-01-16T06:29:31.574Z,99815.84
2024-01-16T06:32:05.912Z,99808.22
2024-01-16T06:34:36.767Z,99807.00
2024-01-16T06:37:08.054Z,99804.00
2024-01-16T06:39:39.414Z,99810.59
2024-01-16T06:42:12.903Z,99817.09
2024-01-16T06:44:43.703Z,99818.91
2024-01-16T06:47:14.635Z,99822.94
2024-01-16T06:49:45.597Z,99820.66
2024-01-16T06:52:16.467Z,99827.78
2024-01-16T06:54:47.216Z,99828.53
2024-01-16T06:57:20.591Z,99821.13
2024-01-16T06:59:51.600Z,99830.94
2024-01-16T07:02:22.401Z,99835.22
2024-01-16T07:04:53.189Z,99836.19
2024-01-16T07:07:23.977Z,99835.56
2024-01-16T07:09:54.689Z,99830.44
2024-01-16T07:12:28.029Z,99842.94
2024-01-16T07:14:58.824Z,99844.84
2024-01-16T07:17:29.687Z,99850.13
2024-01-16T07:20:00.504Z,99851.22
2024-01-16T07:22:31.270Z,99854.63
2024-01-16T07:25:02.104Z,99864.34
2024-01-16T07:27:35.724Z,99860.47
2024-01-16T07:30:09.222Z,99860.75
2024-01-16T07:32:40.112Z,99868.91
2024-01-16T07:35:11.756Z,99873.84
2024-01-16T07:37:42.486Z,99871.19
2024-01-16T07:40:14.091Z,99872.66
2024-01-16T07:42:47.515Z,99873.81
2024-01-16T07:45:18.485Z,99882.81
2024-01-16T07:47:49.225Z,99878.47
2024-01-16T07:50:19.973Z,99884.44
2024-01-16T07:52:50.740Z,99876.66
2024-01-16T07:55:24.391Z,99878.53
2024-01-16T07:57:58.917Z,99877.09
2024-01-16T08:00:29.655Z,99877.78
2024-01-16T08:03:00.655Z,99874.38
2024-01-16T08:05:31.736Z,99875.84
2024-01-16T08:08:02.546Z,99884.16
2024-01-16T08:10:33.303Z,99879.81
2024-01-16T08:13:07.371Z,99884.75
2024-01-16T08:15:38.719Z,99887.13
2024-01-16T08:18:09.912Z,99879.63
2024-01-16T08:20:40.789Z,99884.03
2024-01-16T08:23:11.608Z,99888.00
2024-01-16T08:25:42.389Z,99882.13
2024-01-16T08:28:16.275Z,99881.63
2024-01-16T08:30:47.139Z,99874.22
2024-01-16T08:33:18.064Z,99883.16
2024-01-16T08:35:48.935Z,99890.44
2024-01-16T08:38:19.688Z,99899.56
2024-01-16T08:40:50.477Z,99894.78
2024-01-16T08:43:23.812Z,99896.63
2024-01-16T08:45:54.603Z,99910.66
2024-01-16T08:48:25.552Z,99912.13
2024-01-16T08:50:57.290Z,99899.09
2024-01-16T08:53:28.507Z,99897.81
2024-01-16T08:55:59.320Z,99898.41
2024-01-16T08:58:37.033Z,99904.84
2024-01-16T09:01:08.651Z,99900.41
2024-01-16T09:03:39.560Z,99910.09
2024-01-16T09:06:11.975Z,99903.31
2024-01-16T09:08:43.005Z,99904.41
2024-01-16T09:11:13.937Z,99915.69
2024-01-16T09:13:47.829Z,99919.19
2024-01-16T09:16:18.642Z,99920.50
2024-01-16T09:18:49.535Z,99921.06
2024-01-16T09:21:20.377Z,99926.03
2024-01-16T09:23:51.208Z,99926.31
2024-01-16T09:26:22.230Z,99924.66
2024-01-16T09:28:55.664Z,99930.91
2024-01-16T09:31:26.372Z,99926.13
2024-01-16T09:33:57.167Z,99925.91
2024-01-16T09:36:27.920Z,99927.19
2024-01-16T09:38:58.735Z,99931.16
2024-01-16T09:41:48.713Z,99937.38
2024-01-16T09:44:22.198Z,99937.50
2024-01-16T09:46:55.026Z,99946.19
2024-01-16T09:49:27.125Z,99951.31
2024-01-16T09:52:00.462Z,99953.94
2024-01-16T09:54:31.286Z,99949.16
2024-01-16T09:57:03.301Z,99949.16
2024-01-16T09:59:40.716Z,99958.28
2024-01-16T10:02:14.255Z,99953.44
2024-01-16T10:04:45.846Z,99954.66
2024-01-16T10:07:18.167Z,99950.41
2024-01-16T10:09:48.941Z,99941.53
2024-01-16T10:12:20.338Z,99944.91
2024-01-16T10:14:54.722Z,99949.19
2024-01-16T10:17:25.494Z,99949.19
2024-01-16T10:19:59.729Z,99948.31
2024-01-16T10:22:30.567Z,99949.31
2024-01-16T10:25:09.962Z,99949.59
2024-01-16T10:27:42.736Z,99947.84
2024-01-16T10:30:17.102Z,99955.31
2024-01-16T10:32:50.084Z,99952.78
2024-01-16T10:35:22.293Z,99963.22
2024-01-16T10:37:54.773Z,99961.66
2024-01-16T10:40:27.854Z,99957.28
2024-01-16T10:43:06.047Z,99956.06
2024-01-16T10:45:39.379Z,99955.84
2024-01-16T10:48:11.753Z,99957.28
2024-01-16T10:50:42.870Z,99954.19
2024-01-16T10:53:14.188Z,99960.66
2024-01-16T10:55:54.983Z,99960.06
2024-01-16T10:58:27.074Z,99949.72
2024-01-16T11:01:01.833Z,99946.16
2024-01-16T11:03:39.173Z,99940.84
2024-01-16T11:06:12.829Z,99952.22
2024-01-16T11:08:44.147Z,99944.59
2024-01-16T11:11:15.723Z,99949.41
2024-01-16T11:13:47.871Z,99957.94
2024-01-16T11:16:22.910Z,99954.84
2024-01-16T11:18:54.974Z,99960.03
2024-01-16T11:21:26.738Z,99964.28
2024-01-16T11:23:57.686Z,99961.22
2024-01-16T11:26:34.735Z,99959.25
2024-01-16T11:29:38.876Z,99952.88
2024-01-16T11:32:23.147Z,99958.38
2024-01-16T11:35:01.767Z,99958.28
2024-01-16T11:37:34.324Z,99959.09
2024-01-16T11:40:27.446Z,99958.25
2024-01-16T11:42:59.749Z,99964.75
2024-01-16T11:45:52.801Z,99954.63
2024-01-16T11:48:26.404Z,99958.56
2024-01-16T11:51:00.376Z,99952.81
2024-01-16T11:53:41.980Z,99956.84
2024-01-16T11:56:30.569Z,99957.38
2024-01-16T11:59:32.470Z,99959.69
2024-01-16T12:02:14.588Z,99958.44
2024-01-16T12:04:58.123Z,99953.53
2024-01-16T12:07:29.135Z,99966.91
2024-01-16T12:10:04.136Z,99955.09
2024-01-16T12:12:34.886Z,99960.22
2024-01-16T12:15:05.709Z,99960.78
2024-01-16T12:17:36.594Z,99961.03
2024-01-16T12:20:23.826Z,99966.03
2024-01-16T12:23:01.972Z,99958.69
2024-01-16T12:26:00.461Z,99961.03
2024-01-16T12:28:32.176Z,99964.50
2024-01-16T12:31:04.914Z,99961.66
2024-01-16T12:33:35.889Z,99958.78
2024-01-16T12:36:12.071Z,99943.81
2024-01-16T12:38:42.899Z,99945.69
2024-01-16T12:41:16.898Z,99944.28
2024-01-16T12:43:52.621Z,99933.53
2024-01-16T12:46:25.973Z,99932.31
2024-01-16T12:49:03.658Z,99929.13
2024-01-16T12:51:39.607Z,99921.47
2024-01-16T12:54:18.996Z,99916.94
2024-01-16T12:56:50.433Z,99916.53
2024-01-16T12:59:21.172Z,99909.53
2024-01-16T13:01:52.577Z,99904.72
2024-01-16T13:04:23.222Z,99897.53
2024-01-16T13:07:07.036Z,99908.88
2024-01-16T13:09:38.277Z,99906.81
2024-01-16T13:12:09.492Z,99912.16
2024-01-16T13:14:40.401Z,99898.81
2024-01-16T13:17:11.555Z,99898.13
2024-01-16T13:19:44.114Z,99893.16
2024-01-16T13:22:17.552Z,99893.16
2024-01-16T13:24:54.683Z,99881.59
2024-01-16T13:27:34.036Z,99884.44
2024-01-16T13:30:04.896Z,99894.97
2024-01-16T13:32:38.876Z,99889.41
2024-01-16T13:35:11.233Z,99888.28
2024-01-16T13:37:44.660Z,99882.59
2024-01-16T13:40:21.500Z,99880.84
2024-01-16T13:42:53.404Z,99891.59
2024-01-16T13:45:37.591Z,99887.97
2024-01-16T13:48:10.204Z,99888.50
2024-01-16T13:50:41.066Z,99892.91
2024-01-16T13:53:15.015Z,99888.72
2024-01-16T13:55:46.153Z,99880.19
2024-01-16T13:58:17.031Z,99870.97
2024-01-16T14:00:47.921Z,99869.28
2024-01-16T14:03:18.984Z,99867.22
2024-01-16T14:05:50.643Z,99860.97
2024-01-16T14:08:24.021Z,99867.03
2024-01-16T14:10:54.906Z,99864.69
2024-01-16T14:13:26.590Z,99864.41
2024-01-16T14:15:58.683Z,99860.06
2024-01-16T14:18:29.503Z,99855.63
2024-01-16T14:21:00.434Z,99873.97
2024-01-16T14:23:33.798Z,99862.25
2024-01-16T14:26:04.505Z,99861.69
2024-01-16T14:28:35.229Z,99853.69
2024-01-16T14:31:06.040Z,99844.94
2024-01-16T14:33:36.885Z,99845.41
2024-01-16T14:36:09.519Z,99841.88
2024-01-16T14:38:43.087Z,99843.22
2024-01-16T14:41:15.360Z,99843.31
2024-01-16T14:43:47.239Z,99828.34
2024-01-16T14:46:18.019Z,99829.09
2024-01-16T14:48:49.529Z,99830.28
2024-01-16T14:51:20.424Z,99832.72
2024-01-16T14:53:53.948Z,99833.38
2024-01-16T14:56:25.589Z,99835.22
2024-01-16T14:58:56.332Z,99834.78
2024-01-16T15:01:27.290Z,99842.13
2024-01-16T15:03:59.350Z,99836.44
2024-01-16T15:06:30.932Z,99833.34
2024-01-16T15:09:05.577Z,99828.53
2024-01-16T15:11:36.443Z,99833.38
2024-01-16T15:14:07.200Z,99832.03
2024-01-16T15:16:38.013Z,99828.22
2024-01-16T15:19:08.908Z,99824.63
2024-01-16T15:21:40.859Z,99822.63
2024-01-16T15:24:17.686Z,99814.97
2024-01-16T15:26:48.558Z,99816.84
2024-01-16T15:29:19.317Z,99821.34
2024-01-16T15:31:50.312Z,99810.16
2024-01-16T15:34:21.143Z,99811.69
2024-01-16T15:36:52.359Z,99805.78
2024-01-16T15:39:25.847Z,99807.88
2024-01-16T15:41:56.681Z,99802.84
2024-01-16T15:44:27.527Z,99814.97
2024-01-16T15:47:01.812Z,99807.66
2024-01-16T15:49:33.574Z,99798.91
2024-01-16T15:52:04.381Z,99786.41
2024-01-16T15:54:38.347Z,99790.81
2024-01-16T15:57:09.393Z,99779.97
2024-01-16T15:59:40.160Z,99783.16
2024-01-16T16:02:11.048Z,99786.41
2024-01-16T16:04:42.844Z,99788.28
2024-01-16T16:07:14.513Z,99776.81
2024-01-16T16:09:47.858Z,99782.41
2024-01-16T16:12:19.248Z,99772.97
2024-01-16T16:14:50.088Z,99770.13
2024-01-16T16:17:20.941Z,99768.81
2024-01-16T16:19:53.283Z,99772.94
2024-01-16T16:22:24.027Z,99770.09
2024-01-16T16:24:58.705Z,99770.75
2024-01-16T16:27:31.347Z,99764.19
2024-01-16T16:30:02.189Z,99770.50
2024-01-16T16:32:33.046Z,99764.94
2024-01-16T16:35:05.908Z,99757.59
2024-01-16T16:37:36.712Z,99754.28
2024-01-16T16:40:13.538Z,99749.91
2024-01-16T16:42:44.348Z,99748.16
2024-01-16T16:45:15.588Z,99753.25
2024-01-16T16:47:46.356Z,99746.09
2024-01-16T16:50:17.174Z,99743.97
2024-01-16T16:52:48.132Z,99737.72
2024-01-16T16:55:21.701Z,99728.91
2024-01-16T16:57:52.545Z,99730.19
2024-01-16T17:00:23.870Z,99727.56
2024-01-16T17:02:54.769Z,99726.84
2024-01-16T17:05:25.955Z,99727.72
2024-01-16T17:07:56.844Z,99733.56
2024-01-16T17:10:27.595Z,99729.00
2024-01-16T17:12:58.313Z,99723.38
2024-01-16T17:15:29.072Z,99724.66
2024-01-16T17:17:59.846Z,99730.03
2024-01-16T17:20:31.547Z,99729.50
2024-01-16T17:23:02.749Z,99739.53
2024-01-16T17:25:36.070Z,99736.03
2024-01-16T17:28:07.420Z,99732.56
2024-01-16T17:30:38.308Z,99733.75
2024-01-16T17:33:09.529Z,99744.38
2024-01-16T17:35:40.383Z,99739.03
2024-01-16T17:38:11.172Z,99737.06
2024-01-16T17:40:44.905Z,99744.44
2024-01-16T17:43:15.672Z,99735.53
2024-01-16T17:45:46.599Z,99732.56
2024-01-16T17:48:18.369Z,99734.41
2024-01-16T17:50:50.172Z,99730.13
2024-01-16T17:53:22.633Z,99731.59
2024-01-16T17:55:57.135Z,99725.84
2024-01-16T17:58:27.906Z,99725.47
2024-01-16T18:00:58.736Z,99717.84
2024-01-16T18:03:40.400Z,99720.31
2024-01-16T18:06:13.860Z,99720.94
2024-01-16T18:08:44.916Z,99714.22
2024-01-16T18:11:18.245Z,99714.91
2024-01-16T18:13:49.011Z,99708.03
2024-01-16T18:16:19.776Z,99710.56
2024-01-16T18:18:53.190Z,99697.56
2024-01-16T18:21:24.151Z,99699.13
2024-01-16T18:23:54.882Z,99706.06
2024-01-16T18:26:28.624Z,99709.94
2024-01-16T18:28:59.876Z,99702.81
2024-01-16T18:31:30.573Z,99712.75
2024-01-16T18:34:01.470Z,99705.19
2024-01-16T18:36:32.357Z,99703.81
2024-01-16T18:39:04.696Z,99701.34
2024-01-16T18:41:38.551Z,99705.78
2024-01-16T18:44:13.417Z,99695.84
2024-01-16T18:46:44.195Z,99701.78
2024-01-16T18:49:17.226Z,99706.44
2024-01-16T18:51:48.897Z,99694.72
2024-01-16T18:54:20.268Z,99697.69
2024-01-16T18:56:53.857Z,99701.06
2024-01-16T18:59:24.935Z,99697.16
2024-01-16T19:01:55.693Z,99701.91
2024-01-16T19:04:27.426Z,99698.56
2024-01-16T19:06:58.180Z,99694.44
2024-01-16T19:09:36.958Z,99693.66
2024-01-16T19:12:13.589Z,99697.81
2024-01-16T19:14:46.307Z,99699.19
2024-01-16T19:17:19.904Z,99700.31
2024-01-16T19:19:50.761Z,99680.84
2024-01-16T19:22:21.586Z,99679.50
2024-01-16T19:24:52.445Z,99673.75
2024-01-16T19:27:27.045Z,99675.22
2024-01-16T19:29:59.774Z,99675.06
2024-01-16T19:32:30.789Z,99669.81
2024-01-16T19:35:03.349Z,99674.22
2024-01-16T19:37:34.242Z,99674.16
2024-01-16T19:40:05.759Z,99666.69
2024-01-16T19:42:40.215Z,99666.75
2024-01-16T19:45:12.894Z,99665.66
2024-01-16T19:47:44.045Z,99663.31
2024-01-16T19:50:23.774Z,99660.94
2024-01-16T19:52:59.216Z,99665.94
2024-01-16T19:55:30.668Z,99654.47
2024-01-16T19:58:04.536Z,99655.59
2024-01-16T20:00:35.913Z,99658.97
2024-01-16T20:03:08.732Z,99651.78
2024-01-16T20:05:43.858Z,99644.13
2024-01-16T20:08:15.317Z,99650.09
2024-01-16T20:10:46.078Z,99647.75
2024-01-16T20:13:20.249Z,99635.69
2024-01-16T20:15:53.997Z,99633.03
2024-01-16T20:18:24.924Z,99635.63
2024-01-16T20:20:56.120Z,99625.91
2024-01-16T20:23:27.099Z,99619.88
2024-01-16T20:25:58.314Z,99621.59
2024-01-16T20:28:31.852Z,99616.19
2024-01-16T20:31:02.792Z,99613.50
2024-01-16T20:33:33.674Z,99607.13
2024-01-16T20:36:04.610Z,99610.72
2024-01-16T20:38:35.405Z,99610.31
2024-01-16T20:41:06.775Z,99606.28
2024-01-16T20:43:40.373Z,99607.13
2024-01-16T20:46:11.623Z,99609.41
2024-01-16T20:48:42.656Z,99598.38
2024-01-16T20:51:17.318Z,99587.84
2024-01-16T20:53:57.039Z,99579.53
2024-01-16T20:56:28.376Z,99579.06
2024-01-16T20:59:25.639Z,99576.22
2024-01-16T21:01:56.614Z,99573.97
2024-01-16T21:04:27.457Z,99567.88
2024-01-16T21:06:59.992Z,99568.97
2024-01-16T21:09:31.188Z,99568.56
2024-01-16T21:12:04.579Z,99571.63
2024-01-16T21:14:39.292Z,99570.41
2024-01-16T21:17:10.084Z,99568.47
2024-01-16T21:19:40.838Z,99565.41
2024-01-16T21:22:12.387Z,99565.41
2024-01-16T21:24:43.772Z,99554.06
2024-01-16T21:27:16.136Z,99552.06
2024-01-16T21:29:49.640Z,99557.94
2024-01-16T21:32:20.437Z,99551.91
2024-01-16T21:34:51.277Z,99551.84
2024-01-16T21:37:22.043Z,99554.97
2024-01-16T21:39:54.310Z,99541.09
2024-01-16T21:42:25.280Z,99546.94
2024-01-16T21:44:58.756Z,99541.22
2024-01-16T21:47:29.627Z,99535.63
2024-01-16T21:50:06.124Z,99534.22
2024-01-16T21:52:38.133Z,99534.88
2024-01-16T21:55:10.124Z,99526.78
2024-01-16T21:57:41.686Z,99531.94
2024-01-16T22:00:16.587Z,99517.41
2024-01-16T22:02:47.386Z,99522.06
2024-01-16T22:05:18.164Z,99511.31
2024-01-16T22:07:48.954Z,99513.13
2024-01-16T22:10:19.878Z,99513.53
2024-01-16T22:12:50.730Z,99520.47
2024-01-16T22:15:24.298Z,99514.16
2024-01-16T22:17:56.844Z,99496.47
2024-01-16T22:20:33.247Z,99499.63
2024-01-16T22:23:04.341Z,99495.88
2024-01-16T22:25:35.103Z,99495.94
2024-01-16T22:28:06.099Z,99483.25
2024-01-16T22:30:39.727Z,99486.00
2024-01-16T22:33:10.569Z,99492.59
2024-01-16T22:35:41.433Z,99497.75
2024-01-16T22:38:12.200Z,99479.50
2024-01-16T22:40:43.565Z,99483.34
2024-01-16T22:43:14.264Z,99473.66
2024-01-16T22:45:47.607Z,99471.31
2024-01-16T22:48:18.462Z,99463.06
2024-01-16T22:50:50.955Z,99458.44
2024-01-16T22:53:23.427Z,99460.38
2024-01-16T22:55:54.352Z,99454.69
2024-01-16T22:58:25.101Z,99450.94
2024-01-16T23:01:02.405Z,99444.78
2024-01-16T23:03:33.373Z,99440.41
2024-01-16T23:06:04.595Z,99448.00
2024-01-16T23:08:35.425Z,99436.47
2024-01-16T23:11:06.232Z,99423.50
2024-01-16T23:13:37.833Z,99428.34
2024-01-16T23:16:11.304Z,99422.47
2024-01-16T23:18:42.307Z,99424.00
2024-01-16T23:21:15.193Z,99417.09
2024-01-16T23:23:52.255Z,99414.69
2024-01-16T23:26:23.999Z,99402.28
2024-01-16T23:28:55.000Z,99406.16
2024-01-16T23:31:28.411Z,99398.13
2024-01-16T23:33:59.206Z,99403.38
2024-01-16T23:36:31.490Z,99389.56
2024-01-16T23:39:02.887Z,99388.00
2024-01-16T23:41:33.730Z,99379.13
2024-01-16T23:44:05.750Z,99368.56
2024-01-16T23:46:40.178Z,99365.50
2024-01-16T23:49:11.025Z,99363.78
2024-01-16T23:51:41.763Z,99360.19
2024-01-16T23:54:12.555Z,99342.69
2024-01-16T23:56:43.590Z,99335.06
2024-01-16T23:59:14.365Z,99331.47
